PWSweather.com
Personal Weather Stations
Station Observations

ChardChardGB

Lat: 50.877408, Lon: -2.94964741

Elevation: 341

Station Type: WS3083

http://www.merriott-astro.co.uk/weather/index.htm

High Low Average
Temperature 61.5°F16.4°C 32.0°F0.0°C 51.1°F10.6°C
Dew Point 50.0°F10.0°C 35.7°F2.1°C 40.8°F4.9°C
Winds 13.2 mph 21.2 kmh Calm Calm 8.0 mph WSW12.9 kmh WSW
Wind Gusts 22.1 mph35.6 kmh -- 11.0 mph17.7 kmh
Humidity 78% 0% 52%
Pressure 29.76 in1007.8 mb 29.61 in1002.7 mb -
Precipitation 0.02 in0.5 mm - -
Hour Temp Dew Point Humidity Winds Wind Gusts Pressure Precip Precip Rate Daily Precip Total
05:40 AM 32.0°F0.0°C 50.0°F10.0°C 0% Calm Calm -- 29.64 in1003.7 mb 0.00 in0.0 mm 0.00 in0.0 mm 0.00 in0.0 mm
05:52 AM 32.0°F0.0°C 50.0°F10.0°C 0% Calm Calm -- 29.61 in1002.7 mb 0.00 in0.0 mm 0.00 in0.0 mm 0.00 in0.0 mm
06:00 AM 48.2°F9.0°C 41.7°F5.4°C 78% 5.8 mph NW9.3 kmh NW 7.6 mph12.2 kmh 29.65 in1004.1 mb 0.01 in0.3 mm 0.01 in0.3 mm 0.01 in0.3 mm
06:10 AM 49.8°F9.9°C 42.9°F6.1°C 77% 5.7 mph SW9.2 kmh SW 9.2 mph14.8 kmh 29.65 in1004.1 mb 0.01 in0.3 mm 0.00 in0.0 mm 0.01 in0.3 mm
06:20 AM 51.6°F10.9°C 43.3°F6.3°C 73% 5.7 mph SW9.2 kmh SW 7.6 mph12.2 kmh 29.66 in1004.4 mb 0.01 in0.3 mm 0.00 in0.0 mm 0.01 in0.3 mm
06:30 AM 52.0°F11.1°C 42.9°F6.1°C 71% 7.3 mph W11.7 kmh W 9.8 mph15.8 kmh 29.66 in1004.4 mb 0.01 in0.3 mm 0.00 in0.0 mm 0.01 in0.3 mm
06:40 AM 52.3°F11.3°C 42.9°F6.1°C 70% 7.4 mph WNW11.9 kmh WNW 13.0 mph20.9 kmh 29.67 in1004.7 mb 0.01 in0.3 mm 0.00 in0.0 mm 0.01 in0.3 mm
06:50 AM 52.5°F11.4°C 43.0°F6.1°C 70% 7.7 mph W12.4 kmh W 12.1 mph19.5 kmh 29.67 in1004.7 mb 0.00 in0.0 mm 0.00 in0.0 mm 0.01 in0.3 mm
07:00 AM 52.9°F11.6°C 43.4°F6.3°C 70% 7.1 mph NW11.4 kmh NW 9.8 mph15.8 kmh 29.67 in1004.7 mb 0.00 in0.0 mm 0.00 in0.0 mm 0.01 in0.3 mm
07:10 AM 52.3°F11.3°C 42.5°F5.8°C 69% 9.0 mph WSW14.5 kmh WSW 13.0 mph20.9 kmh 29.67 in1004.7 mb 0.00 in0.0 mm 0.00 in0.0 mm 0.01 in0.3 mm
07:20 AM 53.6°F12.0°C 43.3°F6.3°C 68% 7.8 mph NW12.6 kmh NW 10.7 mph17.2 kmh 29.67 in1004.7 mb 0.00 in0.0 mm 0.00 in0.0 mm 0.01 in0.3 mm
07:30 AM 53.6°F12.0°C 42.5°F5.8°C 66% 9.0 mph W14.5 kmh W 11.4 mph18.3 kmh 29.68 in1005.1 mb 0.00 in0.0 mm 0.00 in0.0 mm 0.01 in0.3 mm
07:40 AM 54.3°F12.4°C 42.4°F5.8°C 64% 8.0 mph W12.9 kmh W 12.1 mph19.5 kmh 29.68 in1005.1 mb 0.00 in0.0 mm 0.00 in0.0 mm 0.01 in0.3 mm
07:50 AM 55.0°F12.8°C 41.8°F5.4°C 61% 5.9 mph NW9.5 kmh NW 8.3 mph13.4 kmh 29.69 in1005.4 mb 0.00 in0.0 mm 0.00 in0.0 mm 0.01 in0.3 mm
08:00 AM 54.7°F12.6°C 40.6°F4.8°C 59% 10.8 mph NW17.4 kmh NW 15.9 mph25.6 kmh 29.69 in1005.4 mb 0.01 in0.3 mm 0.01 in0.3 mm 0.02 in0.5 mm
08:10 AM 55.8°F13.2°C 41.2°F5.1°C 58% 8.4 mph NNW13.5 kmh NNW 11.4 mph18.3 kmh 29.69 in1005.4 mb 0.01 in0.3 mm 0.00 in0.0 mm 0.02 in0.5 mm
08:20 AM 56.5°F13.6°C 41.0°F5.0°C 56% 7.6 mph WNW12.2 kmh WNW 10.7 mph17.2 kmh 29.69 in1005.4 mb 0.01 in0.3 mm 0.00 in0.0 mm 0.02 in0.5 mm
08:30 AM 55.8°F13.2°C 41.2°F5.1°C 58% 5.8 mph NW9.3 kmh NW 8.3 mph13.4 kmh 29.68 in1005.1 mb 0.01 in0.3 mm 0.00 in0.0 mm 0.02 in0.5 mm
08:40 AM 54.5°F12.5°C 39.6°F4.2°C 57% 7.9 mph NW12.7 kmh NW 11.4 mph18.3 kmh 29.69 in1005.4 mb 0.01 in0.3 mm 0.00 in0.0 mm 0.02 in0.5 mm
08:50 AM 55.2°F12.9°C 41.2°F5.1°C 59% 6.8 mph WNW10.9 kmh WNW 10.7 mph17.2 kmh 29.69 in1005.4 mb 0.01 in0.3 mm 0.00 in0.0 mm 0.02 in0.5 mm
09:00 AM 56.1°F13.4°C 39.7°F4.3°C 54% 8.3 mph NW13.4 kmh NW 10.7 mph17.2 kmh 29.69 in1005.4 mb 0.00 in0.0 mm 0.00 in0.0 mm 0.02 in0.5 mm
09:10 AM 57.2°F14.0°C 42.1°F5.6°C 57% 8.5 mph SW13.7 kmh SW 13.0 mph20.9 kmh 29.69 in1005.4 mb 0.00 in0.0 mm 0.00 in0.0 mm 0.02 in0.5 mm
09:20 AM 57.9°F14.4°C 39.9°F4.4°C 51% 8.4 mph SW13.5 kmh SW 12.1 mph19.5 kmh 29.69 in1005.4 mb 0.00 in0.0 mm 0.00 in0.0 mm 0.02 in0.5 mm
09:30 AM 58.6°F14.8°C 40.6°F4.8°C 51% 7.7 mph SW12.4 kmh SW 12.1 mph19.5 kmh 29.69 in1005.4 mb 0.00 in0.0 mm 0.00 in0.0 mm 0.02 in0.5 mm
09:40 AM 56.1°F13.4°C 37.7°F3.2°C 50% 10.4 mph WNW16.7 kmh WNW 14.5 mph23.3 kmh 29.69 in1005.4 mb 0.00 in0.0 mm 0.00 in0.0 mm 0.02 in0.5 mm
09:50 AM 54.3°F12.4°C 40.7°F4.8°C 60% 9.0 mph WNW14.5 kmh WNW 11.4 mph18.3 kmh 29.69 in1005.4 mb 0.00 in0.0 mm 0.00 in0.0 mm 0.02 in0.5 mm
10:00 AM 53.6°F12.0°C 41.7°F5.4°C 64% 7.3 mph NW11.7 kmh NW 9.8 mph15.8 kmh 29.69 in1005.4 mb 0.00 in0.0 mm 0.00 in0.0 mm 0.02 in0.5 mm
10:10 AM 57.0°F13.9°C 44.6°F7.0°C 63% 5.1 mph W8.2 kmh W 6.9 mph11.1 kmh 29.69 in1005.4 mb 0.00 in0.0 mm 0.00 in0.0 mm 0.02 in0.5 mm
10:20 AM 58.5°F14.7°C 40.9°F4.9°C 52% 9.4 mph WNW15.1 kmh WNW 15.9 mph25.6 kmh 29.68 in1005.1 mb 0.00 in0.0 mm 0.00 in0.0 mm 0.02 in0.5 mm
10:30 AM 59.4°F15.2°C 41.2°F5.1°C 51% 9.1 mph WNW14.6 kmh WNW 15.2 mph24.5 kmh 29.68 in1005.1 mb 0.00 in0.0 mm 0.00 in0.0 mm 0.02 in0.5 mm
10:40 AM 57.9°F14.4°C 38.9°F3.8°C 49% 8.7 mph WSW14.0 kmh WSW 11.4 mph18.3 kmh 29.69 in1005.4 mb 0.00 in0.0 mm 0.00 in0.0 mm 0.02 in0.5 mm
10:50 AM 57.4°F14.1°C 39.9°F4.4°C 52% 8.7 mph SW14.0 kmh SW 12.1 mph19.5 kmh 29.68 in1005.1 mb 0.00 in0.0 mm 0.00 in0.0 mm 0.02 in0.5 mm
11:00 AM 60.1°F15.6°C 42.4°F5.8°C 52% 6.4 mph SW10.3 kmh SW 9.8 mph15.8 kmh 29.68 in1005.1 mb 0.00 in0.0 mm 0.00 in0.0 mm 0.02 in0.5 mm
11:10 AM 60.6°F15.9°C 41.9°F5.5°C 50% 8.3 mph SW13.4 kmh SW 13.6 mph21.9 kmh 29.70 in1005.8 mb 0.00 in0.0 mm 0.00 in0.0 mm 0.02 in0.5 mm
11:20 AM 61.3°F16.3°C 39.8°F4.3°C 45% 9.8 mph W15.8 kmh W 13.6 mph21.9 kmh 29.68 in1005.1 mb 0.00 in0.0 mm 0.00 in0.0 mm 0.02 in0.5 mm
11:30 AM 59.7°F15.4°C 37.2°F2.9°C 43% 10.5 mph WSW16.9 kmh WSW 13.0 mph20.9 kmh 29.68 in1005.1 mb 0.00 in0.0 mm 0.00 in0.0 mm 0.02 in0.5 mm
11:40 AM 57.7°F14.3°C 39.2°F4.0°C 50% 9.0 mph WSW14.5 kmh WSW 13.6 mph21.9 kmh 29.69 in1005.4 mb 0.00 in0.0 mm 0.00 in0.0 mm 0.02 in0.5 mm
11:50 AM 56.3°F13.5°C 39.9°F4.4°C 54% 8.7 mph SW14.0 kmh SW 13.0 mph20.9 kmh 29.68 in1005.1 mb 0.00 in0.0 mm 0.00 in0.0 mm 0.02 in0.5 mm
12:00 PM 58.1°F14.5°C 41.1°F5.1°C 53% 7.1 mph SW11.4 kmh SW 11.4 mph18.3 kmh 29.68 in1005.1 mb 0.00 in0.0 mm 0.00 in0.0 mm 0.02 in0.5 mm
12:10 PM 57.6°F14.2°C 40.1°F4.5°C 52% 8.9 mph WSW14.3 kmh WSW 15.2 mph24.5 kmh 29.68 in1005.1 mb 0.00 in0.0 mm 0.00 in0.0 mm 0.02 in0.5 mm
12:20 PM 57.4°F14.1°C 38.9°F3.8°C 50% 8.2 mph W13.2 kmh W 11.4 mph18.3 kmh 29.67 in1004.7 mb 0.00 in0.0 mm 0.00 in0.0 mm 0.02 in0.5 mm
12:30 PM 57.0°F13.9°C 39.1°F3.9°C 51% 7.5 mph NW12.1 kmh NW 8.3 mph13.4 kmh 29.68 in1005.1 mb 0.00 in0.0 mm 0.00 in0.0 mm 0.02 in0.5 mm
12:40 PM 53.6°F12.0°C 42.1°F5.6°C 65% 11.3 mph WNW18.2 kmh WNW 14.5 mph23.3 kmh 29.68 in1005.1 mb 0.00 in0.0 mm 0.00 in0.0 mm 0.02 in0.5 mm
12:50 PM 53.1°F11.7°C 43.5°F6.4°C 70% 10.0 mph NW16.1 kmh NW 15.9 mph25.6 kmh 29.68 in1005.1 mb 0.00 in0.0 mm 0.00 in0.0 mm 0.02 in0.5 mm
01:00 PM 55.2°F12.9°C 43.7°F6.5°C 65% 7.8 mph WNW12.6 kmh WNW 9.2 mph14.8 kmh 29.68 in1005.1 mb 0.00 in0.0 mm 0.00 in0.0 mm 0.02 in0.5 mm
01:10 PM 54.9°F12.7°C 42.9°F6.1°C 64% 8.0 mph W12.9 kmh W 9.8 mph15.8 kmh 29.68 in1005.1 mb 0.00 in0.0 mm 0.00 in0.0 mm 0.02 in0.5 mm
01:20 PM 57.6°F14.2°C 43.8°F6.6°C 60% 6.5 mph W10.5 kmh W 8.3 mph13.4 kmh 29.68 in1005.1 mb 0.00 in0.0 mm 0.00 in0.0 mm 0.02 in0.5 mm
01:30 PM 57.4°F14.1°C 44.5°F6.9°C 62% 8.0 mph W12.9 kmh W 11.4 mph18.3 kmh 29.68 in1005.1 mb 0.00 in0.0 mm 0.00 in0.0 mm 0.02 in0.5 mm
01:40 PM 60.1°F15.6°C 42.9°F6.1°C 53% 7.2 mph NNW11.6 kmh NNW 9.8 mph15.8 kmh 29.68 in1005.1 mb 0.00 in0.0 mm 0.00 in0.0 mm 0.02 in0.5 mm
01:50 PM 61.2°F16.2°C 41.9°F5.5°C 49% 8.9 mph W14.3 kmh W 10.7 mph17.2 kmh 29.68 in1005.1 mb 0.00 in0.0 mm 0.00 in0.0 mm 0.02 in0.5 mm
02:00 PM 61.5°F16.4°C 39.4°F4.1°C 44% 10.0 mph WSW16.1 kmh WSW 13.0 mph20.9 kmh 29.68 in1005.1 mb 0.00 in0.0 mm 0.00 in0.0 mm 0.02 in0.5 mm
02:10 PM 59.0°F15.0°C 38.3°F3.5°C 46% 10.7 mph WNW17.2 kmh WNW 16.8 mph27.0 kmh 29.68 in1005.1 mb 0.00 in0.0 mm 0.00 in0.0 mm 0.02 in0.5 mm
02:20 PM 58.5°F14.7°C 39.4°F4.1°C 49% 11.3 mph NW18.2 kmh NW 14.5 mph23.3 kmh 29.67 in1004.7 mb 0.00 in0.0 mm 0.00 in0.0 mm 0.02 in0.5 mm
02:30 PM 59.5°F15.3°C 40.4°F4.7°C 49% 10.9 mph WNW17.5 kmh WNW 13.6 mph21.9 kmh 29.67 in1004.7 mb 0.00 in0.0 mm 0.00 in0.0 mm 0.02 in0.5 mm
02:40 PM 59.2°F15.1°C 38.4°F3.6°C 46% 12.2 mph W19.6 kmh W 19.0 mph30.6 kmh 29.68 in1005.1 mb 0.00 in0.0 mm 0.00 in0.0 mm 0.02 in0.5 mm
02:50 PM 59.0°F15.0°C 36.0°F2.2°C 42% 12.2 mph SW19.6 kmh SW 17.4 mph28.0 kmh 29.68 in1005.1 mb 0.00 in0.0 mm 0.00 in0.0 mm 0.02 in0.5 mm
03:00 PM 57.2°F14.0°C 38.7°F3.7°C 50% 9.4 mph NW15.1 kmh NW 15.2 mph24.5 kmh 29.67 in1004.7 mb 0.00 in0.0 mm 0.00 in0.0 mm 0.02 in0.5 mm
03:10 PM 58.6°F14.8°C 38.5°F3.6°C 47% 9.7 mph NW15.6 kmh NW 15.9 mph25.6 kmh 29.68 in1005.1 mb 0.00 in0.0 mm 0.00 in0.0 mm 0.02 in0.5 mm
03:20 PM 59.0°F15.0°C 36.5°F2.5°C 43% 12.8 mph WNW20.6 kmh WNW 19.7 mph31.7 kmh 29.67 in1004.7 mb 0.00 in0.0 mm 0.00 in0.0 mm 0.02 in0.5 mm
03:30 PM 59.0°F15.0°C 36.0°F2.2°C 42% 13.2 mph W21.2 kmh W 18.3 mph29.5 kmh 29.67 in1004.7 mb 0.00 in0.0 mm 0.00 in0.0 mm 0.02 in0.5 mm
03:40 PM 58.8°F14.9°C 35.8°F2.1°C 42% 11.8 mph SW19.0 kmh SW 17.4 mph28.0 kmh 29.67 in1004.7 mb 0.00 in0.0 mm 0.00 in0.0 mm 0.02 in0.5 mm
03:50 PM 59.4°F15.2°C 36.3°F2.4°C 42% 11.9 mph SW19.2 kmh SW 15.9 mph25.6 kmh 29.68 in1005.1 mb 0.00 in0.0 mm 0.00 in0.0 mm 0.02 in0.5 mm
04:00 PM 59.2°F15.1°C 36.1°F2.3°C 42% 11.7 mph WNW18.8 kmh WNW 17.4 mph28.0 kmh 29.67 in1004.7 mb 0.00 in0.0 mm 0.00 in0.0 mm 0.02 in0.5 mm
04:10 PM 59.2°F15.1°C 36.1°F2.3°C 42% 12.2 mph N19.6 kmh N 18.3 mph29.5 kmh 29.68 in1005.1 mb 0.00 in0.0 mm 0.00 in0.0 mm 0.02 in0.5 mm
04:20 PM 58.6°F14.8°C 36.2°F2.3°C 43% 10.6 mph W17.1 kmh W 14.5 mph23.3 kmh 29.67 in1004.7 mb 0.00 in0.0 mm 0.00 in0.0 mm 0.02 in0.5 mm
04:30 PM 56.8°F13.8°C 35.7°F2.1°C 45% 10.6 mph W17.1 kmh W 15.2 mph24.5 kmh 29.68 in1005.1 mb 0.00 in0.0 mm 0.00 in0.0 mm 0.02 in0.5 mm
04:40 PM 55.2°F12.9°C 36.4°F2.4°C 49% 11.0 mph W17.7 kmh W 15.2 mph24.5 kmh 29.68 in1005.1 mb 0.00 in0.0 mm 0.00 in0.0 mm 0.02 in0.5 mm
04:50 PM 54.5°F12.5°C 36.8°F2.7°C 51% 10.2 mph WSW16.4 kmh WSW 12.1 mph19.5 kmh 29.69 in1005.4 mb 0.00 in0.0 mm 0.00 in0.0 mm 0.02 in0.5 mm
05:00 PM 52.5°F11.4°C 40.7°F4.8°C 64% 11.9 mph NW19.2 kmh NW 15.9 mph25.6 kmh 29.68 in1005.1 mb 0.00 in0.0 mm 0.00 in0.0 mm 0.02 in0.5 mm
05:10 PM 51.8°F11.0°C 42.0°F5.6°C 69% 11.1 mph WNW17.9 kmh WNW 15.9 mph25.6 kmh 29.68 in1005.1 mb 0.00 in0.0 mm 0.00 in0.0 mm 0.02 in0.5 mm
05:20 PM 54.7°F12.6°C 41.5°F5.3°C 61% 8.8 mph W14.2 kmh W 11.4 mph18.3 kmh 29.68 in1005.1 mb 0.00 in0.0 mm 0.00 in0.0 mm 0.02 in0.5 mm
05:30 PM 55.2°F12.9°C 38.4°F3.6°C 53% 10.9 mph W17.5 kmh W 14.5 mph23.3 kmh 29.68 in1005.1 mb 0.00 in0.0 mm 0.00 in0.0 mm 0.02 in0.5 mm
05:40 PM 54.5°F12.5°C 36.8°F2.7°C 51% 10.9 mph WNW17.5 kmh WNW 15.9 mph25.6 kmh 29.68 in1005.1 mb 0.00 in0.0 mm 0.00 in0.0 mm 0.02 in0.5 mm
05:50 PM 55.0°F12.8°C 36.8°F2.7°C 50% 11.1 mph WNW17.9 kmh WNW 16.8 mph27.0 kmh 29.68 in1005.1 mb 0.00 in0.0 mm 0.00 in0.0 mm 0.02 in0.5 mm
06:00 PM 54.1°F12.3°C 36.9°F2.7°C 52% 12.6 mph NW20.3 kmh NW 22.1 mph35.6 kmh 29.68 in1005.1 mb 0.00 in0.0 mm 0.00 in0.0 mm 0.02 in0.5 mm
06:10 PM 52.9°F11.6°C 37.6°F3.1°C 56% 11.7 mph NW18.8 kmh NW 15.9 mph25.6 kmh 29.69 in1005.4 mb 0.00 in0.0 mm 0.00 in0.0 mm 0.02 in0.5 mm
06:20 PM 53.2°F11.8°C 38.4°F3.6°C 57% 10.7 mph W17.2 kmh W 15.2 mph24.5 kmh 29.69 in1005.4 mb 0.00 in0.0 mm 0.00 in0.0 mm 0.02 in0.5 mm
06:30 PM 52.0°F11.1°C 37.2°F2.9°C 57% 10.4 mph NW16.7 kmh NW 15.9 mph25.6 kmh 29.69 in1005.4 mb 0.00 in0.0 mm 0.00 in0.0 mm 0.02 in0.5 mm
06:40 PM 50.7°F10.4°C 37.8°F3.2°C 61% 10.9 mph W17.5 kmh W 14.5 mph23.3 kmh 29.69 in1005.4 mb 0.00 in0.0 mm 0.00 in0.0 mm 0.02 in0.5 mm
06:50 PM 50.2°F10.1°C 37.7°F3.2°C 62% 11.6 mph W18.7 kmh W 14.5 mph23.3 kmh 29.69 in1005.4 mb 0.00 in0.0 mm 0.00 in0.0 mm 0.02 in0.5 mm
07:00 PM 50.0°F10.0°C 37.9°F3.3°C 63% 10.7 mph W17.2 kmh W 15.2 mph24.5 kmh 29.69 in1005.4 mb 0.00 in0.0 mm 0.00 in0.0 mm 0.02 in0.5 mm
07:10 PM 49.6°F9.8°C 38.0°F3.3°C 64% 10.5 mph NW16.9 kmh NW 13.0 mph20.9 kmh 29.69 in1005.4 mb 0.00 in0.0 mm 0.00 in0.0 mm 0.02 in0.5 mm
07:20 PM 49.3°F9.6°C 38.0°F3.3°C 65% 8.5 mph W13.7 kmh W 11.4 mph18.3 kmh 29.70 in1005.8 mb 0.00 in0.0 mm 0.00 in0.0 mm 0.02 in0.5 mm
07:30 PM 49.1°F9.5°C 37.9°F3.3°C 65% 10.1 mph NW16.3 kmh NW 12.1 mph19.5 kmh 29.70 in1005.8 mb 0.00 in0.0 mm 0.00 in0.0 mm 0.02 in0.5 mm
07:40 PM 48.7°F9.3°C 37.9°F3.3°C 66% 9.7 mph WNW15.6 kmh WNW 15.2 mph24.5 kmh 29.71 in1006.1 mb 0.00 in0.0 mm 0.00 in0.0 mm 0.02 in0.5 mm
07:50 PM 48.6°F9.2°C 37.7°F3.2°C 66% 7.6 mph WNW12.2 kmh WNW 12.1 mph19.5 kmh 29.71 in1006.1 mb 0.00 in0.0 mm 0.00 in0.0 mm 0.02 in0.5 mm
08:00 PM 48.4°F9.1°C 37.9°F3.3°C 67% 8.1 mph WNW13.0 kmh WNW 10.7 mph17.2 kmh 29.71 in1006.1 mb 0.00 in0.0 mm 0.00 in0.0 mm 0.02 in0.5 mm
08:10 PM 48.6°F9.2°C 38.5°F3.6°C 68% 9.5 mph WNW15.3 kmh WNW 15.9 mph25.6 kmh 29.71 in1006.1 mb 0.00 in0.0 mm 0.00 in0.0 mm 0.02 in0.5 mm
08:20 PM 48.4°F9.1°C 38.3°F3.5°C 68% 8.9 mph N14.3 kmh N 16.8 mph27.0 kmh 29.72 in1006.4 mb 0.00 in0.0 mm 0.00 in0.0 mm 0.02 in0.5 mm
08:30 PM 48.2°F9.0°C 38.1°F3.4°C 68% 9.0 mph NW14.5 kmh NW 11.4 mph18.3 kmh 29.73 in1006.8 mb 0.00 in0.0 mm 0.00 in0.0 mm 0.02 in0.5 mm
08:40 PM 48.0°F8.9°C 38.3°F3.5°C 69% 8.9 mph NNW14.3 kmh NNW 13.6 mph21.9 kmh 29.72 in1006.4 mb 0.00 in0.0 mm 0.00 in0.0 mm 0.02 in0.5 mm
08:50 PM 48.0°F8.9°C 38.7°F3.7°C 70% 10.3 mph NW16.6 kmh NW 22.1 mph35.6 kmh 29.73 in1006.8 mb 0.00 in0.0 mm 0.00 in0.0 mm 0.02 in0.5 mm
09:00 PM 47.8°F8.8°C 38.5°F3.6°C 70% 7.9 mph ESE12.7 kmh ESE 10.7 mph17.2 kmh 29.73 in1006.8 mb 0.00 in0.0 mm 0.00 in0.0 mm 0.02 in0.5 mm
09:10 PM 47.8°F8.8°C 38.5°F3.6°C 70% 9.0 mph W14.5 kmh W 13.6 mph21.9 kmh 29.73 in1006.8 mb 0.00 in0.0 mm 0.00 in0.0 mm 0.02 in0.5 mm
09:20 PM 47.5°F8.6°C 38.2°F3.4°C 70% 5.4 mph WNW8.7 kmh WNW 7.6 mph12.2 kmh 29.73 in1006.8 mb 0.00 in0.0 mm 0.00 in0.0 mm 0.02 in0.5 mm
09:30 PM 47.3°F8.5°C 38.4°F3.6°C 71% 6.7 mph W10.8 kmh W 9.2 mph14.8 kmh 29.74 in1007.1 mb 0.00 in0.0 mm 0.00 in0.0 mm 0.02 in0.5 mm
09:40 PM 47.1°F8.4°C 38.2°F3.4°C 71% 6.2 mph WNW10.0 kmh WNW 11.4 mph18.3 kmh 29.74 in1007.1 mb 0.00 in0.0 mm 0.00 in0.0 mm 0.02 in0.5 mm
09:50 PM 47.1°F8.4°C 38.2°F3.4°C 71% 6.9 mph W11.1 kmh W 13.0 mph20.9 kmh 29.74 in1007.1 mb 0.00 in0.0 mm 0.00 in0.0 mm 0.02 in0.5 mm
10:00 PM 47.1°F8.4°C 38.2°F3.4°C 71% 5.7 mph W9.2 kmh W 8.3 mph13.4 kmh 29.75 in1007.5 mb 0.00 in0.0 mm 0.00 in0.0 mm 0.02 in0.5 mm
10:10 PM 47.3°F8.5°C 38.7°F3.7°C 72% 7.0 mph SW11.3 kmh SW 9.8 mph15.8 kmh 29.75 in1007.5 mb 0.00 in0.0 mm 0.00 in0.0 mm 0.02 in0.5 mm
10:20 PM 47.1°F8.4°C 38.6°F3.7°C 72% 6.6 mph WSW10.6 kmh WSW 10.7 mph17.2 kmh 29.76 in1007.8 mb 0.00 in0.0 mm 0.00 in0.0 mm 0.02 in0.5 mm
10:30 PM 47.1°F8.4°C 38.2°F3.4°C 71% 7.0 mph S11.3 kmh S 11.4 mph18.3 kmh 29.76 in1007.8 mb 0.00 in0.0 mm 0.00 in0.0 mm 0.02 in0.5 mm
10:40 PM 47.1°F8.4°C 38.2°F3.4°C 71% 6.4 mph SW10.3 kmh SW 13.0 mph20.9 kmh 29.76 in1007.8 mb 0.00 in0.0 mm 0.00 in0.0 mm 0.02 in0.5 mm
10:50 PM 46.9°F8.3°C 38.0°F3.3°C 71% 6.3 mph WSW10.1 kmh WSW 9.8 mph15.8 kmh 29.76 in1007.8 mb 0.00 in0.0 mm 0.00 in0.0 mm 0.02 in0.5 mm
11:00 PM 46.9°F8.3°C 38.0°F3.3°C 71% 4.5 mph NW7.2 kmh NW 7.6 mph12.2 kmh 29.76 in1007.8 mb 0.00 in0.0 mm 0.00 in0.0 mm 0.02 in0.5 mm
11:10 PM 46.8°F8.2°C 38.2°F3.4°C 72% 4.8 mph WSW7.7 kmh WSW 9.2 mph14.8 kmh 29.76 in1007.8 mb 0.00 in0.0 mm 0.00 in0.0 mm 0.02 in0.5 mm
11:20 PM 46.8°F8.2°C 38.2°F3.4°C 72% 4.4 mph SW7.1 kmh SW 6.0 mph9.7 kmh 29.76 in1007.8 mb 0.00 in0.0 mm 0.00 in0.0 mm 0.02 in0.5 mm
11:30 PM 46.8°F8.2°C 38.2°F3.4°C 72% 4.0 mph SW6.4 kmh SW 6.0 mph9.7 kmh 29.76 in1007.8 mb 0.00 in0.0 mm 0.00 in0.0 mm 0.02 in0.5 mm
11:40 PM 46.6°F8.1°C 38.0°F3.3°C 72% 3.1 mph W5.0 kmh W 5.4 mph8.7 kmh 29.76 in1007.8 mb 0.00 in0.0 mm 0.00 in0.0 mm 0.02 in0.5 mm
11:50 PM 46.6°F8.1°C 38.4°F3.6°C 73% 4.7 mph SW7.6 kmh SW 8.3 mph13.4 kmh 29.76 in1007.8 mb 0.00 in0.0 mm 0.00 in0.0 mm 0.02 in0.5 mm